createdAt,value
2017-12-31T00:02:27.268Z,2.70
2017-12-31T00:04:54.879Z,2.17
2017-12-31T00:07:22.422Z,2.85
2017-12-31T00:09:50.093Z,2.67
2017-12-31T00:12:17.648Z,2.91
2017-12-31T00:14:45.234Z,3.02
2017-12-31T00:19:50.391Z,2.28
2017-12-31T00:22:18.406Z,1.80
2017-12-31T00:24:45.978Z,2.14
2017-12-31T00:27:13.772Z,2.51
2017-12-31T00:29:42.077Z,2.45
2017-12-31T00:32:09.653Z,1.91
2017-12-31T00:34:37.315Z,1.78
2017-12-31T00:37:04.920Z,1.78
2017-12-31T00:39:32.532Z,2.08
2017-12-31T00:42:00.151Z,2.13
2017-12-31T00:44:28.292Z,2.67
2017-12-31T00:46:55.863Z,2.83
2017-12-31T00:49:23.469Z,2.83
2017-12-31T00:51:51.239Z,2.26
2017-12-31T00:54:18.852Z,2.12
2017-12-31T00:56:46.657Z,1.90
2017-12-31T00:59:14.540Z,2.14
2017-12-31T01:01:42.384Z,1.08
2017-12-31T01:04:10.010Z,1.73
2017-12-31T01:06:38.279Z,1.96
2017-12-31T01:09:06.513Z,1.27
2017-12-31T01:11:34.311Z,1.79
2017-12-31T01:14:01.941Z,1.37
2017-12-31T01:16:30.250Z,1.90
2017-12-31T01:18:58.042Z,1.47
2017-12-31T01:21:26.568Z,1.45
2017-12-31T01:23:54.766Z,1.45
2017-12-31T01:26:33.328Z,1.65
2017-12-31T01:29:02.926Z,1.70
2017-12-31T01:31:30.562Z,1.84
2017-12-31T01:33:58.149Z,1.86
2017-12-31T01:36:26.131Z,1.60
2017-12-31T01:38:54.579Z,1.73
2017-12-31T01:41:22.327Z,1.87
2017-12-31T01:43:49.864Z,2.01
2017-12-31T01:46:17.734Z,1.96
2017-12-31T01:48:57.017Z,1.28
2017-12-31T01:51:24.857Z,1.19
2017-12-31T01:53:52.622Z,1.31
2017-12-31T01:56:20.191Z,1.41
2017-12-31T01:58:47.793Z,1.55
2017-12-31T02:01:15.380Z,1.84
2017-12-31T02:03:42.963Z,1.98
2017-12-31T02:06:10.548Z,1.72
2017-12-31T02:08:38.138Z,2.01
2017-12-31T02:11:05.692Z,1.54
2017-12-31T02:13:33.249Z,1.27
2017-12-31T02:16:00.831Z,1.71
2017-12-31T02:18:28.424Z,1.45
2017-12-31T02:20:55.986Z,1.57
2017-12-31T02:23:23.593Z,1.94
2017-12-31T02:25:51.312Z,1.67
2017-12-31T02:28:18.935Z,1.71
2017-12-31T02:30:46.554Z,2.12
2017-12-31T02:33:14.376Z,1.35
2017-12-31T02:35:42.751Z,1.12
2017-12-31T02:38:11.147Z,1.02
2017-12-31T02:40:38.950Z,1.23
2017-12-31T02:43:06.842Z,1.36
2017-12-31T02:48:01.353Z,1.13
2017-12-31T02:50:28.917Z,0.87
2017-12-31T02:52:57.213Z,0.85
2017-12-31T02:55:24.780Z,0.75
2017-12-31T02:57:52.551Z,0.97
2017-12-31T03:00:21.891Z,1.67
2017-12-31T03:02:49.725Z,1.08
2017-12-31T03:05:17.474Z,1.49
2017-12-31T03:07:45.292Z,1.36
2017-12-31T03:10:13.045Z,1.56
2017-12-31T03:12:41.016Z,1.60
2017-12-31T03:15:08.656Z,1.31
2017-12-31T03:17:36.262Z,1.15
2017-12-31T03:20:04.560Z,0.84
2017-12-31T03:22:33.156Z,1.01
2017-12-31T03:25:01.462Z,1.00
2017-12-31T03:27:29.062Z,1.07
2017-12-31T03:29:56.653Z,0.67
2017-12-31T03:32:24.221Z,0.73
2017-12-31T03:34:52.014Z,1.01
2017-12-31T03:37:19.826Z,1.24
2017-12-31T03:39:47.459Z,0.42
2017-12-31T03:42:15.369Z,0.63
2017-12-31T03:44:42.920Z,0.95
2017-12-31T03:47:10.523Z,0.59
2017-12-31T03:49:38.354Z,0.48
2017-12-31T03:52:05.963Z,0.42
2017-12-31T03:54:34.860Z,0.06
2017-12-31T03:57:02.627Z,-0.06
2017-12-31T03:59:30.519Z,-0.10
2017-12-31T04:01:58.107Z,0.09
2017-12-31T04:04:25.657Z,0.26
2017-12-31T04:06:53.216Z,0.38
2017-12-31T04:09:21.689Z,0.68
2017-12-31T04:11:49.217Z,1.02
2017-12-31T04:14:17.689Z,0.56
2017-12-31T04:16:45.351Z,0.31
2017-12-31T04:19:13.746Z,0.77
2017-12-31T04:21:41.533Z,0.44
2017-12-31T04:24:10.089Z,0.73
2017-12-31T04:26:37.791Z,0.80
2017-12-31T04:29:05.381Z,0.52
2017-12-31T04:31:32.968Z,0.60
2017-12-31T04:34:00.611Z,0.62
2017-12-31T04:36:30.263Z,0.72
2017-12-31T04:38:58.551Z,0.53
2017-12-31T04:41:26.165Z,0.38
2017-12-31T04:43:53.913Z,0.66
2017-12-31T04:46:21.733Z,0.34
2017-12-31T04:48:49.317Z,0.67
2017-12-31T04:51:16.953Z,0.96
2017-12-31T04:53:45.510Z,0.54
2017-12-31T04:56:13.293Z,0.34
2017-12-31T04:58:41.441Z,0.44
2017-12-31T05:01:09.287Z,0.29
2017-12-31T05:03:36.915Z,0.21
2017-12-31T05:06:04.497Z,-0.07
2017-12-31T05:08:32.955Z,0.50
2017-12-31T05:11:00.978Z,0.97
2017-12-31T05:13:28.604Z,0.32
2017-12-31T05:15:57.042Z,0.90
2017-12-31T05:18:24.699Z,0.45
2017-12-31T05:20:53.497Z,0.22
2017-12-31T05:23:21.159Z,0.29
2017-12-31T05:25:48.726Z,0.86
2017-12-31T05:28:17.094Z,0.70
2017-12-31T05:30:44.691Z,0.06
2017-12-31T05:33:12.255Z,-0.24
2017-12-31T05:35:40.728Z,-0.15
2017-12-31T05:38:08.443Z,0.41
2017-12-31T05:40:37.296Z,0.34
2017-12-31T05:43:05.020Z,0.14
2017-12-31T05:45:32.983Z,-0.12
2017-12-31T05:48:00.885Z,0.35
2017-12-31T05:50:29.655Z,0.95
2017-12-31T05:52:57.529Z,0.72
2017-12-31T05:55:25.306Z,0.87
2017-12-31T05:57:52.950Z,0.94
2017-12-31T06:00:30.676Z,0.95
2017-12-31T06:03:04.534Z,0.88
2017-12-31T06:05:32.560Z,0.42
2017-12-31T06:08:00.158Z,0.26
2017-12-31T06:10:27.790Z,0.59
2017-12-31T06:12:55.666Z,0.93
2017-12-31T06:15:23.309Z,1.37
2017-12-31T06:17:50.863Z,1.38
2017-12-31T06:20:18.499Z,2.32
2017-12-31T06:22:46.158Z,2.54
2017-12-31T06:25:13.985Z,2.92
2017-12-31T06:27:41.976Z,3.59
2017-12-31T06:30:09.881Z,4.01
2017-12-31T06:32:37.489Z,4.33
2017-12-31T06:35:05.485Z,4.40
2017-12-31T06:37:33.394Z,4.37
2017-12-31T06:40:00.990Z,3.88
2017-12-31T06:42:28.553Z,3.84
2017-12-31T06:44:56.129Z,3.69
2017-12-31T06:47:23.937Z,3.12
2017-12-31T06:49:51.532Z,2.93
2017-12-31T06:52:19.250Z,3.37
2017-12-31T06:54:47.034Z,3.20
2017-12-31T06:57:14.582Z,3.45
2017-12-31T06:59:47.708Z,3.47
2017-12-31T07:02:16.244Z,4.26
2017-12-31T07:04:44.493Z,4.49
2017-12-31T07:07:12.114Z,3.84
2017-12-31T07:09:39.895Z,4.05
2017-12-31T07:12:07.460Z,3.73
2017-12-31T07:14:35.064Z,4.34
2017-12-31T07:17:02.663Z,4.13
2017-12-31T07:19:31.028Z,4.16
2017-12-31T07:21:58.822Z,4.64
2017-12-31T07:24:26.450Z,3.55
2017-12-31T07:26:54.082Z,2.96
2017-12-31T07:29:21.697Z,4.11
2017-12-31T07:31:49.387Z,4.54
2017-12-31T07:34:17.196Z,4.45
2017-12-31T07:36:44.995Z,5.74
2017-12-31T07:39:12.816Z,6.57
2017-12-31T07:41:40.361Z,6.14
2017-12-31T07:44:08.134Z,5.12
2017-12-31T07:46:35.777Z,4.75
2017-12-31T07:49:03.542Z,6.11
2017-12-31T07:51:31.382Z,7.29
2017-12-31T07:53:58.931Z,7.86
2017-12-31T07:56:26.529Z,6.97
2017-12-31T07:58:54.472Z,5.71
2017-12-31T08:01:22.090Z,5.98
2017-12-31T08:03:49.750Z,5.88
2017-12-31T08:06:17.666Z,5.78
2017-12-31T08:08:45.240Z,6.02
2017-12-31T08:11:14.096Z,5.54
2017-12-31T08:13:41.967Z,6.01
2017-12-31T08:16:09.661Z,6.89
2017-12-31T08:18:37.456Z,8.16
2017-12-31T08:21:05.555Z,8.58
2017-12-31T08:23:34.410Z,8.46
2017-12-31T08:26:02.120Z,9.11
2017-12-31T08:28:30.177Z,9.91
2017-12-31T08:30:57.877Z,10.62
2017-12-31T08:33:25.572Z,11.81
2017-12-31T08:35:53.892Z,11.51
2017-12-31T08:38:22.669Z,13.15
2017-12-31T08:40:50.642Z,11.78
2017-12-31T08:43:18.385Z,11.09
2017-12-31T08:45:46.178Z,11.50
2017-12-31T08:48:14.877Z,11.23
2017-12-31T08:50:44.855Z,11.28
2017-12-31T08:53:16.152Z,11.47
2017-12-31T08:55:46.505Z,11.81
2017-12-31T08:58:14.772Z,12.42
2017-12-31T09:00:45.157Z,11.92
2017-12-31T09:03:13.578Z,11.89
2017-12-31T09:05:41.593Z,11.92
2017-12-31T09:08:09.225Z,10.50
2017-12-31T09:10:36.757Z,10.22
2017-12-31T09:13:05.447Z,10.06
2017-12-31T09:15:33.808Z,11.47
2017-12-31T09:18:01.619Z,12.05
2017-12-31T09:20:30.967Z,11.15
2017-12-31T09:22:58.551Z,11.77
2017-12-31T09:25:26.531Z,9.76
2017-12-31T09:27:54.150Z,8.89
2017-12-31T09:30:21.827Z,10.11
2017-12-31T09:32:49.654Z,11.05
2017-12-31T09:35:17.259Z,11.44
2017-12-31T09:37:45.239Z,10.94
2017-12-31T09:40:12.898Z,9.82
2017-12-31T09:42:40.533Z,8.58
2017-12-31T09:45:08.750Z,8.11
2017-12-31T09:47:36.344Z,8.69
2017-12-31T09:50:03.914Z,8.40
2017-12-31T09:52:31.516Z,8.58
2017-12-31T09:54:59.085Z,7.59
2017-12-31T09:57:26.620Z,6.67
2017-12-31T09:59:54.182Z,7.89
2017-12-31T10:02:21.763Z,8.13
2017-12-31T10:04:49.277Z,6.22
2017-12-31T10:07:16.802Z,7.89
2017-12-31T10:09:44.389Z,8.09
2017-12-31T10:12:11.943Z,7.34
2017-12-31T10:14:39.499Z,8.61
2017-12-31T10:17:07.065Z,7.92
2017-12-31T10:19:34.614Z,8.20
2017-12-31T10:22:02.160Z,8.02
2017-12-31T10:24:29.945Z,7.88
2017-12-31T10:26:57.498Z,8.28
2017-12-31T10:29:25.050Z,7.30
2017-12-31T10:31:52.661Z,7.25
2017-12-31T10:34:20.200Z,7.58
2017-12-31T10:36:47.793Z,7.26
2017-12-31T10:39:15.499Z,7.25
2017-12-31T10:41:43.018Z,7.57
2017-12-31T10:44:10.590Z,7.22
2017-12-31T10:46:38.197Z,6.79
2017-12-31T10:49:05.972Z,7.07
2017-12-31T10:51:33.663Z,7.02
2017-12-31T10:54:01.237Z,7.38
2017-12-31T10:56:29.017Z,7.39
2017-12-31T10:58:56.574Z,7.08
2017-12-31T11:01:24.247Z,7.12
2017-12-31T11:03:52.032Z,7.23
2017-12-31T11:06:19.587Z,7.44
2017-12-31T11:08:48.156Z,7.93
2017-12-31T11:11:15.935Z,7.72
2017-12-31T11:13:43.475Z,7.36
2017-12-31T11:16:12.002Z,7.66
2017-12-31T11:18:39.605Z,7.93
2017-12-31T11:21:20.029Z,8.26
2017-12-31T11:24:14.376Z,8.38
2017-12-31T11:26:42.331Z,7.72
2017-12-31T11:31:58.019Z,7.03
2017-12-31T11:34:26.130Z,6.65
2017-12-31T11:36:54.295Z,6.75
2017-12-31T11:39:22.178Z,7.03
2017-12-31T11:41:50.033Z,7.13
2017-12-31T11:44:17.815Z,7.82
2017-12-31T11:46:45.820Z,6.54
2017-12-31T11:49:14.626Z,6.54
2017-12-31T11:51:42.326Z,7.67
2017-12-31T11:54:09.990Z,7.71
2017-12-31T11:56:37.630Z,7.58
2017-12-31T11:59:05.186Z,7.60
2017-12-31T12:01:32.827Z,7.77
2017-12-31T12:04:00.439Z,7.98
2017-12-31T12:06:28.350Z,7.61
2017-12-31T12:08:56.194Z,7.86
2017-12-31T12:11:23.876Z,8.38
2017-12-31T12:13:52.532Z,7.83
2017-12-31T12:16:20.350Z,7.88
2017-12-31T12:18:51.257Z,8.47
2017-12-31T12:21:18.839Z,8.88
2017-12-31T12:23:46.441Z,8.87
2017-12-31T12:26:15.036Z,9.14
2017-12-31T12:28:42.587Z,9.34
2017-12-31T12:31:10.181Z,9.27
2017-12-31T12:33:47.833Z,9.57
2017-12-31T12:36:15.482Z,9.48
2017-12-31T12:38:43.110Z,9.94
2017-12-31T12:41:11.466Z,9.89
2017-12-31T12:43:40.270Z,10.24
2017-12-31T12:46:08.081Z,10.35
2017-12-31T12:48:38.222Z,9.91
2017-12-31T12:51:06.063Z,10.29
2017-12-31T12:53:33.614Z,10.49
2017-12-31T12:56:01.250Z,10.43
2017-12-31T12:58:28.981Z,9.56
2017-12-31T13:00:56.862Z,9.77
2017-12-31T13:03:25.412Z,9.47
2017-12-31T13:05:53.683Z,9.80
2017-12-31T13:09:06.719Z,9.36
2017-12-31T13:11:35.963Z,9.56
2017-12-31T13:14:04.657Z,9.21
2017-12-31T13:16:32.329Z,9.18
2017-12-31T13:19:01.096Z,8.97
2017-12-31T13:21:28.935Z,9.11
2017-12-31T13:23:58.670Z,8.83
2017-12-31T13:26:26.525Z,9.35
2017-12-31T13:28:55.550Z,9.15
2017-12-31T13:31:25.195Z,9.11
2017-12-31T13:33:53.014Z,9.30
2017-12-31T13:36:20.846Z,8.83
2017-12-31T13:38:50.997Z,8.54
2017-12-31T13:41:19.184Z,8.80
2017-12-31T13:43:49.005Z,9.31
2017-12-31T13:46:19.129Z,9.23
2017-12-31T13:48:46.934Z,9.26
2017-12-31T13:51:14.667Z,9.34
2017-12-31T13:53:43.181Z,8.83
2017-12-31T13:56:11.725Z,8.55
2017-12-31T13:58:39.886Z,8.60
2017-12-31T14:01:08.116Z,7.86
2017-12-31T14:03:38.154Z,8.26
2017-12-31T14:06:07.990Z,8.48
2017-12-31T14:08:36.375Z,8.21
2017-12-31T14:11:04.141Z,8.47
2017-12-31T14:13:31.965Z,9.03
2017-12-31T14:16:27.608Z,8.64
2017-12-31T14:19:01.409Z,8.13
2017-12-31T14:21:29.148Z,8.20
2017-12-31T14:23:57.032Z,8.33
2017-12-31T14:26:24.637Z,8.49
2017-12-31T14:28:54.053Z,8.31
2017-12-31T14:31:22.544Z,8.34
2017-12-31T14:33:51.272Z,8.54
2017-12-31T14:36:20.729Z,7.91
2017-12-31T14:42:11.643Z,8.24
2017-12-31T14:44:40.664Z,7.91
2017-12-31T14:47:11.611Z,8.11
2017-12-31T14:49:40.892Z,7.89
2017-12-31T14:52:09.568Z,7.68
2017-12-31T14:54:40.162Z,7.62
2017-12-31T14:57:24.261Z,7.75
2017-12-31T14:59:58.054Z,7.75
2017-12-31T15:02:25.917Z,7.56
2017-12-31T15:04:57.902Z,7.22
2017-12-31T15:07:26.246Z,7.09
2017-12-31T15:09:54.424Z,7.27
2017-12-31T15:12:23.047Z,7.82
2017-12-31T15:14:50.843Z,7.36
2017-12-31T15:17:22.202Z,7.35
2017-12-31T15:19:50.010Z,7.37
2017-12-31T15:22:17.866Z,7.39
2017-12-31T15:24:45.508Z,7.20
2017-12-31T15:27:13.567Z,7.28
2017-12-31T15:29:41.644Z,7.20
2017-12-31T15:34:51.369Z,7.02
2017-12-31T15:37:21.365Z,6.98
2017-12-31T15:39:49.953Z,6.97
2017-12-31T15:42:17.718Z,7.02
2017-12-31T15:44:47.228Z,6.98
2017-12-31T15:47:38.879Z,6.99
2017-12-31T15:50:06.973Z,6.94
2017-12-31T15:52:34.634Z,7.24
2017-12-31T15:55:02.252Z,7.76
2017-12-31T15:57:29.969Z,7.44
2017-12-31T15:59:57.840Z,7.54
2017-12-31T16:02:26.669Z,7.15
2017-12-31T16:04:54.410Z,7.15
2017-12-31T16:07:23.160Z,7.30
2017-12-31T16:10:03.808Z,7.60
2017-12-31T16:12:39.076Z,7.64
2017-12-31T16:15:08.784Z,7.76
2017-12-31T16:17:42.247Z,7.37
2017-12-31T16:20:10.341Z,7.32
2017-12-31T16:22:38.110Z,7.23
2017-12-31T16:25:16.428Z,6.98
2017-12-31T16:27:46.989Z,6.76
2017-12-31T16:30:14.872Z,7.08
2017-12-31T19:10:33.237Z,5.31
2017-12-31T19:13:01.027Z,5.49
2017-12-31T19:15:28.696Z,5.55
2017-12-31T19:17:56.423Z,5.45
2017-12-31T19:23:37.469Z,5.81
2017-12-31T19:26:05.318Z,5.70
2017-12-31T19:28:33.172Z,5.95
2017-12-31T19:31:01.244Z,5.65
2017-12-31T19:33:29.347Z,5.81
2017-12-31T19:35:57.508Z,6.19
2017-12-31T19:38:25.492Z,6.38
2017-12-31T19:40:56.603Z,6.38
2017-12-31T19:43:24.374Z,6.47
2017-12-31T19:45:53.716Z,6.65
2017-12-31T19:48:21.736Z,6.58
2017-12-31T19:50:50.212Z,6.52
2017-12-31T19:53:17.944Z,6.58
2017-12-31T19:55:45.698Z,6.66
2017-12-31T19:58:13.677Z,6.40
2017-12-31T20:00:41.798Z,6.02
2017-12-31T20:03:09.925Z,5.99
2017-12-31T20:05:38.084Z,6.12
2017-12-31T20:08:05.940Z,6.01
2017-12-31T20:10:34.019Z,5.92
2017-12-31T20:13:01.854Z,6.18
2017-12-31T20:15:30.086Z,5.90
2017-12-31T20:17:57.835Z,6.04
2017-12-31T20:20:26.055Z,5.74
2017-12-31T20:22:53.740Z,5.99
2017-12-31T20:25:21.696Z,6.19
2017-12-31T20:27:49.380Z,5.82
2017-12-31T20:30:17.184Z,5.53
2017-12-31T20:32:44.946Z,5.64
2017-12-31T20:35:12.959Z,5.61
2017-12-31T20:37:41.674Z,5.46
2017-12-31T20:40:21.615Z,5.00
2017-12-31T20:42:49.500Z,5.66
2017-12-31T20:45:17.478Z,5.49
2017-12-31T20:47:45.484Z,5.10
2017-12-31T20:50:13.383Z,4.86
2017-12-31T20:52:41.184Z,5.14
2017-12-31T20:55:08.918Z,5.62
2017-12-31T20:58:07.392Z,5.42
2017-12-31T21:00:35.099Z,5.23
2017-12-31T21:03:02.957Z,5.11
2017-12-31T21:05:30.685Z,5.23
2017-12-31T21:07:58.513Z,5.08
2017-12-31T21:10:26.344Z,4.18
2017-12-31T21:12:54.807Z,4.77
2017-12-31T21:15:22.549Z,4.78
2017-12-31T21:17:50.385Z,4.43
2017-12-31T21:20:18.114Z,4.31
2017-12-31T21:22:46.802Z,4.21
2017-12-31T21:25:14.493Z,4.28
2017-12-31T21:27:42.228Z,4.55
2017-12-31T21:30:10.179Z,4.33
2017-12-31T21:32:37.872Z,4.80
2017-12-31T21:35:05.541Z,4.40
2017-12-31T21:37:33.713Z,4.47
2017-12-31T21:40:01.386Z,4.56
2017-12-31T21:42:29.112Z,4.52
2017-12-31T21:44:56.862Z,4.71
2017-12-31T21:47:24.573Z,4.59
2017-12-31T21:49:52.424Z,4.86
2017-12-31T21:52:20.141Z,4.85
2017-12-31T21:54:47.832Z,4.70
2017-12-31T21:57:15.524Z,4.72
2017-12-31T21:59:43.386Z,4.89
2017-12-31T22:02:11.337Z,5.12
2017-12-31T22:04:38.948Z,5.16
2017-12-31T22:07:07.899Z,4.79
2017-12-31T22:09:35.815Z,4.95
2017-12-31T22:12:03.477Z,4.99
2017-12-31T22:14:31.447Z,4.29
2017-12-31T22:16:59.801Z,4.46
2017-12-31T22:19:27.509Z,4.26
2017-12-31T22:21:56.933Z,4.41
2017-12-31T22:24:25.441Z,4.25
2017-12-31T22:26:53.298Z,3.97
2017-12-31T22:36:18.094Z,3.90
2017-12-31T22:43:56.806Z,4.11
2017-12-31T22:46:27.966Z,4.18
2017-12-31T22:49:00.805Z,4.30
2017-12-31T22:51:28.736Z,4.32
2017-12-31T22:53:59.586Z,4.10
2017-12-31T22:56:29.358Z,3.93
2017-12-31T22:59:01.983Z,3.98
2017-12-31T23:04:59.235Z,4.05
2017-12-31T23:07:28.004Z,3.84
2017-12-31T23:09:56.683Z,3.84
2017-12-31T23:12:25.556Z,3.32
2017-12-31T23:14:53.964Z,3.65
2017-12-31T23:17:23.964Z,3.85
2017-12-31T23:19:51.846Z,3.23
2017-12-31T23:22:20.733Z,3.11
2017-12-31T23:25:10.620Z,3.74
2017-12-31T23:38:01.333Z,3.77
2017-12-31T23:40:30.888Z,3.83
2017-12-31T23:42:59.242Z,4.10
2017-12-31T23:45:44.509Z,4.30
2017-12-31T23:48:12.075Z,4.16
2017-12-31T23:50:43.983Z,4.43
2017-12-31T23:53:12.682Z,4.15
2017-12-31T23:55:41.806Z,4.11
2017-12-31T23:58:10.218Z,4.30
